createdAt,value
2023-02-08T00:01:00.701Z,-2.13
2023-02-08T00:03:29.198Z,-2.11
2023-02-08T00:05:56.509Z,-2.11
2023-02-08T00:08:23.896Z,-2.08
2023-02-08T00:10:53.575Z,-2.09
2023-02-08T00:13:20.840Z,-2.07
2023-02-08T00:15:48.200Z,-2.07
2023-02-08T00:18:15.589Z,-2.06
2023-02-08T00:20:43.706Z,-2.03
2023-02-08T00:23:12.344Z,-2.01
2023-02-08T00:25:41.929Z,-1.98
2023-02-08T00:28:14.692Z,-1.97
2023-02-08T00:30:44.211Z,-1.94
2023-02-08T00:33:13.620Z,-1.96
2023-02-08T00:35:42.722Z,-1.96
2023-02-08T00:38:10.220Z,-1.94
2023-02-08T00:40:38.625Z,-1.95
2023-02-08T00:43:07.069Z,-1.96
2023-02-08T00:45:35.344Z,-1.97
2023-02-08T00:48:03.653Z,-1.98
2023-02-08T00:50:31.022Z,-1.99
2023-02-08T00:52:59.846Z,-2.01
2023-02-08T00:55:27.534Z,-2.02
2023-02-08T00:57:55.356Z,-2.03
2023-02-08T01:00:22.975Z,-2.04
2023-02-08T01:02:50.243Z,-2.05
2023-02-08T01:05:18.079Z,-2.05
2023-02-08T01:07:45.452Z,-2.08
2023-02-08T01:10:13.147Z,-2.09
2023-02-08T01:12:42.537Z,-2.11
2023-02-08T01:15:10.355Z,-2.11
2023-02-08T01:17:39.493Z,-2.12
2023-02-08T01:20:07.869Z,-2.12
2023-02-08T01:22:36.421Z,-2.11
2023-02-08T01:25:04.174Z,-2.11
2023-02-08T01:27:33.497Z,-2.12
2023-02-08T01:30:00.982Z,-2.12
2023-02-08T01:32:28.934Z,-2.12
2023-02-08T01:34:56.458Z,-2.14
2023-02-08T01:37:24.145Z,-2.15
2023-02-08T01:39:51.471Z,-2.16
2023-02-08T01:42:21.928Z,-2.17
2023-02-08T01:45:21.092Z,-2.18
2023-02-08T01:47:53.778Z,-2.18
2023-02-08T01:50:26.750Z,-2.20
2023-02-08T01:52:54.057Z,-2.20
2023-02-08T01:55:32.032Z,-2.21
2023-02-08T01:58:03.663Z,-2.23
2023-02-08T02:00:32.654Z,-2.24
2023-02-08T02:03:01.728Z,-2.24
2023-02-08T02:05:38.801Z,-2.26
2023-02-08T02:08:06.936Z,-2.27
2023-02-08T02:10:37.022Z,-2.28
2023-02-08T02:13:12.065Z,-2.29
2023-02-08T02:15:45.004Z,-2.30
2023-02-08T02:18:19.453Z,-2.31
2023-02-08T02:21:33.064Z,-2.32
2023-02-08T02:24:38.008Z,-2.31
2023-02-08T02:27:11.301Z,-2.33
2023-02-08T02:30:17.096Z,-2.32
2023-02-08T02:32:50.869Z,-2.31
2023-02-08T02:35:18.188Z,-2.33
2023-02-08T02:38:10.358Z,-2.35
2023-02-08T02:41:04.752Z,-2.36
2023-02-08T02:43:52.168Z,-2.37
2023-02-08T02:46:35.327Z,-2.39
2023-02-08T02:49:04.885Z,-2.38
2023-02-08T02:51:54.394Z,-2.38
2023-02-08T02:54:35.124Z,-2.39
2023-02-08T02:57:05.946Z,-2.38
2023-02-08T02:59:38.859Z,-2.41
2023-02-08T03:02:06.194Z,-2.42
2023-02-08T03:04:33.490Z,-2.42
2023-02-08T03:07:10.111Z,-2.44
2023-02-08T03:10:08.472Z,-2.44
2023-02-08T03:13:25.825Z,-2.45
2023-02-08T03:16:19.708Z,-2.47
2023-02-08T03:19:12.195Z,-2.46
2023-02-08T03:22:24.993Z,-2.46
2023-02-08T03:24:54.767Z,-2.46
2023-02-08T03:27:32.997Z,-2.47
2023-02-08T03:30:13.883Z,-2.48
2023-02-08T03:32:44.142Z,-2.49
2023-02-08T03:35:15.374Z,-2.49
2023-02-08T03:37:48.151Z,-2.48
2023-02-08T03:40:24.755Z,-2.47
2023-02-08T03:42:54.483Z,-2.47
2023-02-08T03:45:40.993Z,-2.47
2023-02-08T03:48:11.356Z,-2.49
2023-02-08T03:50:59.779Z,-2.50
2023-02-08T03:53:28.493Z,-2.52
2023-02-08T03:56:04.578Z,-2.53
2023-02-08T03:58:38.833Z,-2.55
2023-02-08T04:01:13.413Z,-2.58
2023-02-08T04:03:44.458Z,-2.59
2023-02-08T04:06:11.982Z,-2.60
2023-02-08T04:08:39.659Z,-2.60
2023-02-08T04:11:07.051Z,-2.61
2023-02-08T04:13:34.298Z,-2.63
2023-02-08T04:16:01.632Z,-2.63
2023-02-08T04:18:28.948Z,-2.65
2023-02-08T04:20:56.227Z,-2.66
2023-02-08T04:23:23.488Z,-2.68
2023-02-08T04:25:52.330Z,-2.68
2023-02-08T04:28:20.101Z,-2.69
2023-02-08T04:30:47.946Z,-2.67
2023-02-08T04:33:15.670Z,-2.68
2023-02-08T04:35:43.589Z,-2.65
2023-02-08T04:38:11.246Z,-2.62
2023-02-08T04:40:38.669Z,-2.61
2023-02-08T04:43:06.097Z,-2.61
2023-02-08T04:45:33.438Z,-2.63
2023-02-08T04:48:02.144Z,-2.67
2023-02-08T04:50:29.941Z,-2.67
2023-02-08T04:52:57.217Z,-2.70
2023-02-08T04:55:24.714Z,-2.75
2023-02-08T04:57:52.075Z,-2.74
2023-02-08T05:00:19.947Z,-2.75
2023-02-08T05:02:47.982Z,-2.77
2023-02-08T05:05:15.486Z,-2.79
2023-02-08T05:07:42.885Z,-2.80
2023-02-08T05:10:10.242Z,-2.80
2023-02-08T05:12:37.689Z,-2.80
2023-02-08T05:15:05.227Z,-2.82
2023-02-08T05:17:33.726Z,-2.84
2023-02-08T05:20:03.610Z,-2.86
2023-02-08T05:22:32.223Z,-2.87
2023-02-08T05:24:59.652Z,-2.89
2023-02-08T05:27:27.087Z,-2.92
2023-02-08T05:29:58.072Z,-2.92
2023-02-08T05:32:28.127Z,-2.89
2023-02-08T05:34:55.516Z,-2.90
2023-02-08T05:37:22.811Z,-2.90
2023-02-08T05:39:50.270Z,-2.90
2023-02-08T05:42:17.512Z,-2.92
2023-02-08T05:44:44.805Z,-2.92
2023-02-08T05:47:12.114Z,-2.92
2023-02-08T05:49:39.460Z,-2.92
2023-02-08T05:52:07.228Z,-2.92
2023-02-08T05:54:34.493Z,-2.92
2023-02-08T05:57:02.277Z,-2.93
2023-02-08T05:59:29.934Z,-2.94
2023-02-08T06:01:57.224Z,-2.94
2023-02-08T06:04:24.793Z,-2.93
2023-02-08T06:06:52.457Z,-2.94
2023-02-08T06:09:19.808Z,-2.93
2023-02-08T06:11:47.411Z,-2.90
2023-02-08T06:14:14.766Z,-2.88
2023-02-08T06:16:44.764Z,-2.87
2023-02-08T06:19:13.413Z,-2.84
2023-02-08T06:21:44.557Z,-2.85
2023-02-08T06:24:12.327Z,-2.83
2023-02-08T06:26:40.448Z,-2.84
2023-02-08T06:29:07.801Z,-2.83
2023-02-08T06:31:35.989Z,-2.84
2023-02-08T06:34:03.334Z,-2.84
2023-02-08T06:36:30.575Z,-2.83
2023-02-08T06:38:57.808Z,-2.84
2023-02-08T06:41:25.280Z,-2.83
2023-02-08T06:43:52.945Z,-2.83
2023-02-08T06:46:20.268Z,-2.82
2023-02-08T06:48:47.564Z,-2.81
2023-02-08T06:51:14.837Z,-2.80
2023-02-08T06:53:42.636Z,-2.79
2023-02-08T06:56:10.029Z,-2.81
2023-02-08T06:58:38.063Z,-2.82
2023-02-08T07:01:06.571Z,-2.82
2023-02-08T07:03:34.607Z,-2.83
2023-02-08T07:06:05.301Z,-2.82
2023-02-08T07:08:33.958Z,-2.81
2023-02-08T07:11:07.151Z,-2.80
2023-02-08T07:13:34.613Z,-2.79
2023-02-08T07:16:04.147Z,-2.79
2023-02-08T07:18:33.892Z,-2.79
2023-02-08T07:21:01.490Z,-2.78
2023-02-08T07:23:28.827Z,-2.77
2023-02-08T07:26:04.804Z,-2.78
2023-02-08T07:28:36.621Z,-2.75
2023-02-08T07:31:10.565Z,-2.75
2023-02-08T07:33:38.884Z,-2.72
2023-02-08T07:36:07.768Z,-2.71
2023-02-08T07:38:35.717Z,-2.70
2023-02-08T07:41:06.232Z,-2.67
2023-02-08T07:43:35.987Z,-2.65
2023-02-08T07:46:08.365Z,-2.64
2023-02-08T07:48:37.494Z,-2.61
2023-02-08T07:51:06.788Z,-2.60
2023-02-08T07:53:34.385Z,-2.57
2023-02-08T07:56:01.736Z,-2.55
2023-02-08T07:58:29.560Z,-2.53
2023-02-08T08:00:56.834Z,-2.51
2023-02-08T08:03:24.866Z,-2.48
2023-02-08T08:05:54.755Z,-2.44
2023-02-08T08:08:22.312Z,-2.42
2023-02-08T08:10:49.654Z,-2.39
2023-02-08T08:13:16.978Z,-2.35
2023-02-08T08:15:44.422Z,-2.29
2023-02-08T08:18:11.760Z,-2.23
2023-02-08T08:20:39.370Z,-2.18
2023-02-08T08:23:07.048Z,-2.12
2023-02-08T08:25:34.253Z,-2.05
2023-02-08T08:28:01.855Z,-1.99
2023-02-08T08:30:29.158Z,-1.93
2023-02-08T08:32:56.496Z,-1.86
2023-02-08T08:35:23.802Z,-1.80
2023-02-08T08:37:50.993Z,-1.74
2023-02-08T08:40:18.437Z,-1.70
2023-02-08T08:42:45.736Z,-1.68
2023-02-08T08:45:13.031Z,-1.64
2023-02-08T08:47:41.000Z,-1.60
2023-02-08T08:50:08.990Z,-1.55
2023-02-08T08:52:36.346Z,-1.50
2023-02-08T08:55:03.638Z,-1.41
2023-02-08T08:57:32.960Z,-1.32
2023-02-08T09:00:00.248Z,-1.23
2023-02-08T09:02:27.708Z,-1.15
2023-02-08T09:04:55.076Z,-1.06
2023-02-08T09:07:22.627Z,-0.98
2023-02-08T09:09:50.089Z,-0.91
2023-02-08T09:12:17.390Z,-0.85
2023-02-08T09:14:47.577Z,-0.77
2023-02-08T09:17:14.843Z,-0.70
2023-02-08T09:19:42.701Z,-0.64
2023-02-08T09:22:10.060Z,-0.57
2023-02-08T09:24:37.672Z,-0.51
2023-02-08T09:27:05.142Z,-0.42
2023-02-08T09:29:34.386Z,-0.33
2023-02-08T09:32:01.792Z,-0.23
2023-02-08T09:34:29.028Z,-0.15
2023-02-08T09:36:57.100Z,-0.07
2023-02-08T09:39:25.376Z,0.02
2023-02-08T09:42:29.036Z,0.11
2023-02-08T09:45:08.497Z,0.19
2023-02-08T09:47:39.428Z,0.27
2023-02-08T09:50:36.298Z,0.35
2023-02-08T09:53:35.140Z,0.45
2023-02-08T09:56:07.429Z,0.53
2023-02-08T09:58:47.095Z,0.61
2023-02-08T10:01:21.632Z,0.69
2023-02-08T10:03:51.944Z,0.75
2023-02-08T10:06:20.498Z,0.83
2023-02-08T10:08:52.455Z,0.86
2023-02-08T10:11:45.917Z,0.93
2023-02-08T10:14:22.047Z,0.99
2023-02-08T10:17:11.025Z,1.06
2023-02-08T10:20:03.375Z,1.14
2023-02-08T10:22:48.874Z,1.23
2023-02-08T10:25:37.186Z,1.32
2023-02-08T10:28:07.108Z,1.39
2023-02-08T10:30:49.837Z,1.43
2023-02-08T10:33:37.358Z,1.47
2023-02-08T10:36:15.053Z,1.55
2023-02-08T10:38:46.691Z,1.60
2023-02-08T10:41:20.302Z,1.65
2023-02-08T10:44:20.356Z,1.71
2023-02-08T10:46:50.893Z,1.79
2023-02-08T10:49:58.313Z,1.87
2023-02-08T10:52:25.859Z,1.93
2023-02-08T10:54:53.277Z,2.02
2023-02-08T10:57:26.240Z,2.07
2023-02-08T11:00:00.550Z,2.09
2023-02-08T11:02:39.901Z,2.13
2023-02-08T11:05:13.472Z,2.18
2023-02-08T11:07:42.524Z,2.24
2023-02-08T11:10:19.022Z,2.29
2023-02-08T11:12:59.020Z,2.34
2023-02-08T11:15:48.689Z,2.40
2023-02-08T11:18:21.524Z,2.45
2023-02-08T11:20:52.125Z,2.47
2023-02-08T11:23:30.397Z,2.52
2023-02-08T11:26:19.846Z,2.56
2023-02-08T11:29:11.981Z,2.60
2023-02-08T11:31:42.068Z,2.64
2023-02-08T11:34:11.975Z,2.67
2023-02-08T11:36:48.151Z,2.73
2023-02-08T11:39:29.662Z,2.77
2023-02-08T11:42:01.586Z,2.82
2023-02-08T11:44:31.487Z,2.86
2023-02-08T11:47:05.199Z,2.91
2023-02-08T11:49:39.313Z,2.98
2023-02-08T11:52:29.337Z,3.04
2023-02-08T11:55:26.661Z,3.08
2023-02-08T11:58:03.072Z,3.13
2023-02-08T12:00:37.763Z,3.20
2023-02-08T12:03:18.419Z,3.25
2023-02-08T12:06:03.345Z,3.29
2023-02-08T12:08:44.099Z,3.35
2023-02-08T12:11:29.334Z,3.42
2023-02-08T12:14:12.553Z,3.47
2023-02-08T12:16:54.921Z,3.56
2023-02-08T12:19:35.433Z,3.60
2023-02-08T12:22:26.743Z,3.65
2023-02-08T12:25:21.745Z,3.72
2023-02-08T12:27:51.936Z,3.77
2023-02-08T12:30:34.514Z,3.76
2023-02-08T12:33:38.696Z,3.78
2023-02-08T12:36:09.142Z,3.79
2023-02-08T12:39:19.145Z,3.80
2023-02-08T12:42:13.017Z,3.82
2023-02-08T12:45:02.145Z,3.84
2023-02-08T12:48:03.998Z,3.87
2023-02-08T12:50:40.715Z,3.89
2023-02-08T12:53:37.955Z,3.92
2023-02-08T12:56:14.184Z,3.93
2023-02-08T12:58:55.038Z,3.95
2023-02-08T13:01:41.329Z,4.00
2023-02-08T13:04:27.341Z,4.03
2023-02-08T13:07:01.480Z,4.04
2023-02-08T13:09:35.869Z,4.02
2023-02-08T13:12:15.118Z,4.02
2023-02-08T13:14:57.590Z,4.00
2023-02-08T13:17:28.818Z,4.00
2023-02-08T13:20:05.039Z,3.97
2023-02-08T13:22:37.441Z,3.98
2023-02-08T13:25:14.880Z,3.97
2023-02-08T13:27:44.790Z,3.95
2023-02-08T13:30:19.873Z,3.94
2023-02-08T13:32:50.713Z,3.92
2023-02-08T13:35:24.827Z,3.89
2023-02-08T13:37:59.860Z,3.88
2023-02-08T13:40:30.362Z,3.89
2023-02-08T13:43:09.360Z,3.89
2023-02-08T13:45:42.830Z,3.88
2023-02-08T13:48:17.116Z,3.90
2023-02-08T13:50:51.962Z,3.89
2023-02-08T13:53:39.542Z,3.87
2023-02-08T13:56:13.345Z,3.87
2023-02-08T13:58:49.360Z,3.86
2023-02-08T14:01:19.860Z,3.87
2023-02-08T14:04:09.870Z,3.86
2023-02-08T14:06:56.475Z,3.84
2023-02-08T14:09:54.920Z,3.85
2023-02-08T14:12:52.991Z,3.83
2023-02-08T14:15:23.124Z,3.82
2023-02-08T14:17:58.373Z,3.82
2023-02-08T14:20:29.189Z,3.83
2023-02-08T14:23:00.301Z,3.81
2023-02-08T14:25:38.450Z,3.81
2023-02-08T14:28:07.087Z,3.80
2023-02-08T14:30:39.842Z,3.80
2023-02-08T14:33:08.030Z,3.79
2023-02-08T14:35:39.750Z,3.80
2023-02-08T14:38:19.489Z,3.77
2023-02-08T14:40:47.486Z,3.76
2023-02-08T14:43:23.067Z,3.77
2023-02-08T14:45:52.874Z,3.74
2023-02-08T14:48:43.965Z,3.75
2023-02-08T14:51:11.497Z,3.73
2023-02-08T14:53:45.892Z,3.73
2023-02-08T14:56:31.969Z,3.70
2023-02-08T14:59:11.487Z,3.68
2023-02-08T15:01:53.053Z,3.68
2023-02-08T15:04:23.966Z,3.66
2023-02-08T15:07:26.911Z,3.64
2023-02-08T15:09:54.657Z,3.63
2023-02-08T15:12:43.956Z,3.60
2023-02-08T15:15:25.067Z,3.58
2023-02-08T15:17:54.844Z,3.56
2023-02-08T15:20:29.797Z,3.55
2023-02-08T15:23:19.308Z,3.53
2023-02-08T15:26:01.318Z,3.48
2023-02-08T15:28:31.050Z,3.47
2023-02-08T15:31:06.002Z,3.42
2023-02-08T15:33:34.193Z,3.42
2023-02-08T15:36:15.199Z,3.38
2023-02-08T15:38:46.316Z,3.35
2023-02-08T15:41:23.904Z,3.30
2023-02-08T15:43:51.414Z,3.27
2023-02-08T15:46:26.053Z,3.22
2023-02-08T15:48:54.790Z,3.17
2023-02-08T15:51:24.387Z,3.12
2023-02-08T15:53:54.580Z,3.10
2023-02-08T15:56:38.443Z,3.06
2023-02-08T15:59:15.286Z,3.00
2023-02-08T16:01:47.510Z,2.97
2023-02-08T16:04:16.293Z,2.92
2023-02-08T16:06:56.011Z,2.87
2023-02-08T16:09:27.466Z,2.82
2023-02-08T16:12:00.346Z,2.78
2023-02-08T16:14:30.217Z,2.72
2023-02-08T16:16:58.858Z,2.67
2023-02-08T16:19:33.814Z,2.61
2023-02-08T16:22:28.612Z,2.55
2023-02-08T16:25:24.627Z,2.50
2023-02-08T16:27:53.346Z,2.46
2023-02-08T16:30:22.151Z,2.41
2023-02-08T16:32:50.107Z,2.36
2023-02-08T16:35:27.574Z,2.28
2023-02-08T16:37:59.316Z,2.24
2023-02-08T16:40:51.481Z,2.18
2023-02-08T16:43:29.778Z,2.14
2023-02-08T16:46:25.428Z,2.09
2023-02-08T16:48:56.752Z,2.06
2023-02-08T16:51:27.931Z,2.01
2023-02-08T16:54:00.729Z,1.95
2023-02-08T16:56:28.519Z,1.87
2023-02-08T16:58:55.813Z,1.81
2023-02-08T17:01:26.390Z,1.78
2023-02-08T17:03:53.975Z,1.74
2023-02-08T17:06:29.072Z,1.72
2023-02-08T17:08:58.038Z,1.69
2023-02-08T17:11:25.632Z,1.67
2023-02-08T17:13:53.018Z,1.66
2023-02-08T17:16:23.557Z,1.65
2023-02-08T17:18:51.003Z,1.62
2023-02-08T17:21:18.576Z,1.59
2023-02-08T17:23:46.221Z,1.56
2023-02-08T17:26:20.433Z,1.51
2023-02-08T17:28:48.378Z,1.47
2023-02-08T17:31:16.161Z,1.43
2023-02-08T17:33:45.019Z,1.37
2023-02-08T17:36:15.230Z,1.33
2023-02-08T17:38:44.518Z,1.29
2023-02-08T17:41:20.901Z,1.25
2023-02-08T17:43:53.549Z,1.22
2023-02-08T17:46:26.327Z,1.17
2023-02-08T17:48:54.324Z,1.15
2023-02-08T17:51:24.149Z,1.11
2023-02-08T17:53:51.827Z,1.09
2023-02-08T17:56:22.235Z,1.03
2023-02-08T17:58:53.414Z,0.99
2023-02-08T18:01:27.003Z,0.94
2023-02-08T18:03:55.202Z,0.91
2023-02-08T18:06:25.099Z,0.89
2023-02-08T18:08:53.982Z,0.85
2023-02-08T18:11:23.599Z,0.82
2023-02-08T18:13:53.427Z,0.81
2023-02-08T18:16:26.589Z,0.80
2023-02-08T18:18:59.423Z,0.77
2023-02-08T18:21:27.264Z,0.76
2023-02-08T18:23:55.656Z,0.76
2023-02-08T18:26:24.920Z,0.76
2023-02-08T18:28:52.571Z,0.76
2023-02-08T18:31:21.162Z,0.76
2023-02-08T18:33:49.995Z,0.74
2023-02-08T18:36:18.007Z,0.71
2023-02-08T18:38:47.468Z,0.69
2023-02-08T18:41:24.257Z,0.67
2023-02-08T18:43:53.362Z,0.66
2023-02-08T18:46:22.529Z,0.66
2023-02-08T18:48:51.006Z,0.67
2023-02-08T18:51:19.847Z,0.69
2023-02-08T18:53:50.922Z,0.68
2023-02-08T18:56:23.001Z,0.65
2023-02-08T18:58:54.743Z,0.61
2023-02-08T19:01:24.267Z,0.56
2023-02-08T19:03:52.141Z,0.52
2023-02-08T19:06:25.575Z,0.46
2023-02-08T19:08:55.110Z,0.41
2023-02-08T19:11:25.736Z,0.36
2023-02-08T19:13:55.307Z,0.30
2023-02-08T19:16:24.580Z,0.22
2023-02-08T19:18:56.572Z,0.15
2023-02-08T19:21:24.356Z,0.09
2023-02-08T19:23:53.729Z,0.06
2023-02-08T19:26:22.808Z,0.02
2023-02-08T19:28:51.771Z,-0.01
2023-02-08T19:31:22.597Z,-0.05
2023-02-08T19:33:58.506Z,-0.08
2023-02-08T19:36:29.106Z,-0.10
2023-02-08T19:38:57.606Z,-0.12
2023-02-08T19:41:28.828Z,-0.15
2023-02-08T19:43:56.180Z,-0.16
2023-02-08T19:46:25.561Z,-0.18
2023-02-08T19:48:59.984Z,-0.22
2023-02-08T19:51:30.450Z,-0.27
2023-02-08T19:53:59.273Z,-0.31
2023-02-08T19:56:27.325Z,-0.33
2023-02-08T19:58:54.577Z,-0.35
2023-02-08T20:01:23.193Z,-0.37
2023-02-08T20:03:52.801Z,-0.43
2023-02-08T20:06:25.637Z,-0.46
2023-02-08T20:08:53.409Z,-0.47
2023-02-08T20:11:33.053Z,-0.47
2023-02-08T20:14:01.053Z,-0.47
2023-02-08T20:16:31.788Z,-0.51
2023-02-08T20:19:00.330Z,-0.51
2023-02-08T20:21:28.127Z,-0.53
2023-02-08T20:23:55.986Z,-0.53
2023-02-08T20:26:27.042Z,-0.54
2023-02-08T20:29:01.812Z,-0.57
2023-02-08T20:31:32.933Z,-0.60
2023-02-08T20:34:03.403Z,-0.61
2023-02-08T20:36:38.564Z,-0.63
2023-02-08T20:39:07.068Z,-0.66
2023-02-08T20:41:35.644Z,-0.67
2023-02-08T20:44:03.052Z,-0.69
2023-02-08T20:46:35.286Z,-0.72
2023-02-08T20:49:04.984Z,-0.74
2023-02-08T20:51:34.408Z,-0.74
2023-02-08T20:54:03.424Z,-0.75
2023-02-08T20:56:35.819Z,-0.76
2023-02-08T20:59:16.756Z,-0.78
2023-02-08T21:01:46.505Z,-0.79
2023-02-08T21:04:14.145Z,-0.83
2023-02-08T21:06:44.450Z,-0.84
2023-02-08T21:09:14.400Z,-0.84
2023-02-08T21:11:42.004Z,-0.85
2023-02-08T21:14:13.705Z,-0.87
2023-02-08T21:16:41.677Z,-0.89
2023-02-08T21:19:10.895Z,-0.92
2023-02-08T21:21:38.339Z,-0.96
2023-02-08T21:24:06.216Z,-0.99
2023-02-08T21:26:33.768Z,-1.00
2023-02-08T21:29:05.939Z,-1.01
2023-02-08T21:31:38.850Z,-1.02
2023-02-08T21:34:07.684Z,-1.06
2023-02-08T21:36:35.482Z,-1.07
2023-02-08T21:39:03.943Z,-1.09
2023-02-08T21:41:34.021Z,-1.12
2023-02-08T21:44:04.342Z,-1.15
2023-02-08T21:46:33.186Z,-1.18
2023-02-08T21:49:19.879Z,-1.20
2023-02-08T21:52:07.013Z,-1.23
2023-02-08T21:54:41.979Z,-1.24
2023-02-08T21:57:29.592Z,-1.26
2023-02-08T21:59:58.673Z,-1.29
2023-02-08T22:02:29.657Z,-1.29
2023-02-08T22:04:59.049Z,-1.31
2023-02-08T22:07:27.239Z,-1.32
2023-02-08T22:09:54.914Z,-1.33
2023-02-08T22:12:23.041Z,-1.36
2023-02-08T22:14:50.969Z,-1.35
2023-02-08T22:17:18.838Z,-1.36
2023-02-08T22:19:46.210Z,-1.37
2023-02-08T22:22:13.633Z,-1.36
2023-02-08T22:24:41.231Z,-1.37
2023-02-08T22:27:09.073Z,-1.38
2023-02-08T22:29:36.379Z,-1.38
2023-02-08T22:32:05.381Z,-1.39
2023-02-08T22:34:33.834Z,-1.40
2023-02-08T22:37:03.825Z,-1.43
2023-02-08T22:39:32.993Z,-1.44
2023-02-08T22:42:00.298Z,-1.47
2023-02-08T22:44:27.736Z,-1.48
2023-02-08T22:46:56.112Z,-1.52
2023-02-08T22:49:23.810Z,-1.53
2023-02-08T22:51:51.001Z,-1.55
2023-02-08T22:54:19.074Z,-1.57
2023-02-08T22:56:46.276Z,-1.59
2023-02-08T22:59:13.524Z,-1.60
2023-02-08T23:01:41.479Z,-1.59
2023-02-08T23:04:08.860Z,-1.62
2023-02-08T23:06:36.157Z,-1.63
2023-02-08T23:09:05.599Z,-1.64
2023-02-08T23:11:33.554Z,-1.65
2023-02-08T23:14:00.854Z,-1.68
2023-02-08T23:16:28.068Z,-1.70
2023-02-08T23:18:56.925Z,-1.72
2023-02-08T23:21:24.223Z,-1.71
2023-02-08T23:23:53.506Z,-1.71
2023-02-08T23:26:22.031Z,-1.71
2023-02-08T23:28:53.765Z,-1.73
2023-02-08T23:31:21.559Z,-1.73
2023-02-08T23:33:49.816Z,-1.75
2023-02-08T23:36:21.351Z,-1.75
2023-02-08T23:38:50.142Z,-1.75
2023-02-08T23:41:21.432Z,-1.75
2023-02-08T23:43:50.467Z,-1.76
2023-02-08T23:46:18.995Z,-1.77
2023-02-08T23:48:47.917Z,-1.78
2023-02-08T23:51:17.285Z,-1.79
2023-02-08T23:53:45.128Z,-1.81
2023-02-08T23:56:12.431Z,-1.82
2023-02-08T23:58:39.779Z,-1.84
